sensor_id;sensor_type;location;lat;lon;timestamp;temperature;humidity
16402;DHT22;8310;44.626;11.176;2022-12-24T00:00:58;11.30;80.20
16402;DHT22;8310;44.626;11.176;2022-12-24T00:03:25;11.30;80.20
16402;DHT22;8310;44.626;11.176;2022-12-24T00:05:56;11.20;80.20
16402;DHT22;8310;44.626;11.176;2022-12-24T00:08:24;11.30;80.30
16402;DHT22;8310;44.626;11.176;2022-12-24T00:10:52;11.30;80.30
16402;DHT22;8310;44.626;11.176;2022-12-24T00:13:20;11.30;80.40
16402;DHT22;8310;44.626;11.176;2022-12-24T00:15:49;11.30;81.10
16402;DHT22;8310;44.626;11.176;2022-12-24T00:18:17;11.30;80.40
16402;DHT22;8310;44.626;11.176;2022-12-24T00:20:46;11.30;80.40
16402;DHT22;8310;44.626;11.176;2022-12-24T00:23:14;11.30;80.50
16402;DHT22;8310;44.626;11.176;2022-12-24T00:25:42;11.40;80.50
16402;DHT22;8310;44.626;11.176;2022-12-24T00:28:11;11.40;80.50
16402;DHT22;8310;44.626;11.176;2022-12-24T00:30:39;11.40;80.40
16402;DHT22;8310;44.626;11.176;2022-12-24T00:33:09;11.40;80.40
16402;DHT22;8310;44.626;11.176;2022-12-24T00:35:37;11.40;80.40
16402;DHT22;8310;44.626;11.176;2022-12-24T00:38:06;11.40;80.30
16402;DHT22;8310;44.626;11.176;2022-12-24T00:40:34;11.30;80.30
16402;DHT22;8310;44.626;11.176;2022-12-24T00:43:02;11.30;80.30
16402;DHT22;8310;44.626;11.176;2022-12-24T00:45:29;11.30;80.30
16402;DHT22;8310;44.626;11.176;2022-12-24T00:47:58;11.30;80.30
16402;DHT22;8310;44.626;11.176;2022-12-24T00:50:27;11.30;80.30
16402;DHT22;8310;44.626;11.176;2022-12-24T00:52:55;11.30;80.40
16402;DHT22;8310;44.626;11.176;2022-12-24T00:55:22;11.30;80.40
16402;DHT22;8310;44.626;11.176;2022-12-24T00:57:50;11.30;80.50
16402;DHT22;8310;44.626;11.176;2022-12-24T01:00:18;11.30;80.50
16402;DHT22;8310;44.626;11.176;2022-12-24T01:02:46;11.30;80.50
16402;DHT22;8310;44.626;11.176;2022-12-24T01:05:13;11.30;80.50
16402;DHT22;8310;44.626;11.176;2022-12-24T01:07:42;11.40;80.50
16402;DHT22;8310;44.626;11.176;2022-12-24T01:10:11;11.40;80.50
16402;DHT22;8310;44.626;11.176;2022-12-24T01:12:39;11.40;80.60
16402;DHT22;8310;44.626;11.176;2022-12-24T01:15:08;11.40;80.50
16402;DHT22;8310;44.626;11.176;2022-12-24T01:17:38;11.40;80.60
16402;DHT22;8310;44.626;11.176;2022-12-24T01:20:09;11.40;80.60
16402;DHT22;8310;44.626;11.176;2022-12-24T01:22:37;11.50;80.70
16402;DHT22;8310;44.626;11.176;2022-12-24T01:25:08;11.50;80.70
16402;DHT22;8310;44.626;11.176;2022-12-24T01:27:36;11.50;80.70
16402;DHT22;8310;44.626;11.176;2022-12-24T01:30:04;11.50;80.70
16402;DHT22;8310;44.626;11.176;2022-12-24T01:32:32;11.50;80.50
16402;DHT22;8310;44.626;11.176;2022-12-24T01:35:00;11.40;80.30
16402;DHT22;8310;44.626;11.176;2022-12-24T01:37:28;11.40;80.40
16402;DHT22;8310;44.626;11.176;2022-12-24T01:39:55;11.40;80.50
16402;DHT22;8310;44.626;11.176;2022-12-24T01:42:43;11.40;80.60
16402;DHT22;8310;44.626;11.176;2022-12-24T01:45:41;11.40;80.50
16402;DHT22;8310;44.626;11.176;2022-12-24T01:48:18;11.40;80.50
16402;DHT22;8310;44.626;11.176;2022-12-24T01:50:47;11.40;80.50
16402;DHT22;8310;44.626;11.176;2022-12-24T01:53:17;11.40;80.50
16402;DHT22;8310;44.626;11.176;2022-12-24T01:55:46;11.40;80.50
16402;DHT22;8310;44.626;11.176;2022-12-24T01:58:17;11.40;81.40
16402;DHT22;8310;44.626;11.176;2022-12-24T02:00:46;11.40;80.60
16402;DHT22;8310;44.626;11.176;2022-12-24T02:03:15;11.40;80.50
16402;DHT22;8310;44.626;11.176;2022-12-24T02:05:47;11.40;80.50
16402;DHT22;8310;44.626;11.176;2022-12-24T02:08:15;11.40;80.40
16402;DHT22;8310;44.626;11.176;2022-12-24T02:10:44;11.30;80.10
16402;DHT22;8310;44.626;11.176;2022-12-24T02:13:12;11.20;80.10
16402;DHT22;8310;44.626;11.176;2022-12-24T02:15:53;11.20;80.20
16402;DHT22;8310;44.626;11.176;2022-12-24T02:18:27;11.20;80.20
16402;DHT22;8310;44.626;11.176;2022-12-24T02:21:39;11.10;80.10
16402;DHT22;8310;44.626;11.176;2022-12-24T02:27:34;10.90;80.80
16402;DHT22;8310;44.626;11.176;2022-12-24T02:30:13;10.90;80.20
16402;DHT22;8310;44.626;11.176;2022-12-24T02:33:07;10.90;80.30
16402;DHT22;8310;44.626;11.176;2022-12-24T02:35:43;10.80;80.40
16402;DHT22;8310;44.626;11.176;2022-12-24T02:38:18;10.90;80.40
16402;DHT22;8310;44.626;11.176;2022-12-24T02:40:49;10.90;80.50
16402;DHT22;8310;44.626;11.176;2022-12-24T02:43:20;10.90;80.60
16402;DHT22;8310;44.626;11.176;2022-12-24T02:45:54;11.00;80.70
16402;DHT22;8310;44.626;11.176;2022-12-24T02:48:23;11.00;80.70
16402;DHT22;8310;44.626;11.176;2022-12-24T02:51:03;11.00;80.70
16402;DHT22;8310;44.626;11.176;2022-12-24T02:53:32;11.00;80.60
16402;DHT22;8310;44.626;11.176;2022-12-24T02:56:25;11.10;80.70
16402;DHT22;8310;44.626;11.176;2022-12-24T02:59:11;11.10;80.70
16402;DHT22;8310;44.626;11.176;2022-12-24T03:01:56;11.10;80.70
16402;DHT22;8310;44.626;11.176;2022-12-24T03:04:31;11.20;80.70
16402;DHT22;8310;44.626;11.176;2022-12-24T03:07:15;11.20;80.70
16402;DHT22;8310;44.626;11.176;2022-12-24T03:09:53;11.20;80.70
16402;DHT22;8310;44.626;11.176;2022-12-24T03:12:27;11.20;80.80
16402;DHT22;8310;44.626;11.176;2022-12-24T03:14:57;11.20;80.70
16402;DHT22;8310;44.626;11.176;2022-12-24T03:17:27;11.20;80.60
16402;DHT22;8310;44.626;11.176;2022-12-24T03:19:55;11.20;80.50
16402;DHT22;8310;44.626;11.176;2022-12-24T03:22:24;11.20;80.50
16402;DHT22;8310;44.626;11.176;2022-12-24T03:24:53;11.10;80.40
16402;DHT22;8310;44.626;11.176;2022-12-24T03:27:22;11.10;80.20
16402;DHT22;8310;44.626;11.176;2022-12-24T03:29:51;11.00;80.00
16402;DHT22;8310;44.626;11.176;2022-12-24T03:32:22;11.00;80.10
16402;DHT22;8310;44.626;11.176;2022-12-24T03:34:52;11.00;80.20
16402;DHT22;8310;44.626;11.176;2022-12-24T03:37:20;11.00;80.40
16402;DHT22;8310;44.626;11.176;2022-12-24T03:39:48;11.00;80.30
16402;DHT22;8310;44.626;11.176;2022-12-24T03:42:15;10.90;80.20
16402;DHT22;8310;44.626;11.176;2022-12-24T03:44:43;10.90;80.30
16402;DHT22;8310;44.626;11.176;2022-12-24T03:47:10;10.90;80.40
16402;DHT22;8310;44.626;11.176;2022-12-24T03:49:38;10.90;80.50
16402;DHT22;8310;44.626;11.176;2022-12-24T03:52:07;11.00;80.60
16402;DHT22;8310;44.626;11.176;2022-12-24T03:54:35;11.00;80.70
16402;DHT22;8310;44.626;11.176;2022-12-24T03:57:03;11.10;80.70
16402;DHT22;8310;44.626;11.176;2022-12-24T03:59:31;11.10;80.70
16402;DHT22;8310;44.626;11.176;2022-12-24T04:01:58;11.10;80.70
16402;DHT22;8310;44.626;11.176;2022-12-24T04:04:26;11.10;80.70
16402;DHT22;8310;44.626;11.176;2022-12-24T04:06:54;11.10;80.50
16402;DHT22;8310;44.626;11.176;2022-12-24T04:09:24;11.10;80.30
16402;DHT22;8310;44.626;11.176;2022-12-24T04:11:51;11.00;80.20
16402;DHT22;8310;44.626;11.176;2022-12-24T04:14:19;11.00;80.20
16402;DHT22;8310;44.626;11.176;2022-12-24T04:16:47;11.00;80.40
16402;DHT22;8310;44.626;11.176;2022-12-24T04:19:15;11.00;80.40
16402;DHT22;8310;44.626;11.176;2022-12-24T04:21:42;11.00;80.30
16402;DHT22;8310;44.626;11.176;2022-12-24T04:24:10;11.00;80.10
16402;DHT22;8310;44.626;11.176;2022-12-24T04:26:40;10.90;80.10
16402;DHT22;8310;44.626;11.176;2022-12-24T04:29:08;10.90;81.00
16402;DHT22;8310;44.626;11.176;2022-12-24T04:31:35;10.90;80.30
16402;DHT22;8310;44.626;11.176;2022-12-24T04:34:03;10.90;80.30
16402;DHT22;8310;44.626;11.176;2022-12-24T04:36:31;10.90;80.50
16402;DHT22;8310;44.626;11.176;2022-12-24T04:38:59;11.00;81.30
16402;DHT22;8310;44.626;11.176;2022-12-24T04:41:27;11.00;80.70
16402;DHT22;8310;44.626;11.176;2022-12-24T04:43:57;11.00;80.70
16402;DHT22;8310;44.626;11.176;2022-12-24T04:46:26;11.10;80.70
16402;DHT22;8310;44.626;11.176;2022-12-24T04:48:55;11.10;80.70
16402;DHT22;8310;44.626;11.176;2022-12-24T04:51:24;11.10;80.50
16402;DHT22;8310;44.626;11.176;2022-12-24T04:53:53;11.10;80.50
16402;DHT22;8310;44.626;11.176;2022-12-24T04:56:23;11.00;80.50
16402;DHT22;8310;44.626;11.176;2022-12-24T04:58:51;11.10;80.70
16402;DHT22;8310;44.626;11.176;2022-12-24T05:01:22;11.10;80.70
16402;DHT22;8310;44.626;11.176;2022-12-24T05:03:50;11.10;80.70
16402;DHT22;8310;44.626;11.176;2022-12-24T05:06:20;11.10;80.70
16402;DHT22;8310;44.626;11.176;2022-12-24T05:08:48;11.10;80.80
16402;DHT22;8310;44.626;11.176;2022-12-24T05:11:16;11.20;80.80
16402;DHT22;8310;44.626;11.176;2022-12-24T05:13:45;11.20;80.80
16402;DHT22;8310;44.626;11.176;2022-12-24T05:16:14;11.20;80.80
16402;DHT22;8310;44.626;11.176;2022-12-24T05:18:43;11.20;80.80
16402;DHT22;8310;44.626;11.176;2022-12-24T05:21:13;11.30;80.90
16402;DHT22;8310;44.626;11.176;2022-12-24T05:23:42;11.20;80.80
16402;DHT22;8310;44.626;11.176;2022-12-24T05:26:28;11.30;81.00
16402;DHT22;8310;44.626;11.176;2022-12-24T05:28:58;11.30;80.90
16402;DHT22;8310;44.626;11.176;2022-12-24T05:31:28;11.30;80.90
16402;DHT22;8310;44.626;11.176;2022-12-24T05:33:57;11.30;80.90
16402;DHT22;8310;44.626;11.176;2022-12-24T05:36:26;11.30;80.90
16402;DHT22;8310;44.626;11.176;2022-12-24T05:38:53;11.30;80.90
16402;DHT22;8310;44.626;11.176;2022-12-24T05:41:21;11.30;80.90
16402;DHT22;8310;44.626;11.176;2022-12-24T05:43:49;11.30;80.90
16402;DHT22;8310;44.626;11.176;2022-12-24T05:46:19;11.30;80.90
16402;DHT22;8310;44.626;11.176;2022-12-24T05:48:47;11.30;80.90
16402;DHT22;8310;44.626;11.176;2022-12-24T05:51:17;11.30;80.90
16402;DHT22;8310;44.626;11.176;2022-12-24T05:53:50;11.30;80.90
16402;DHT22;8310;44.626;11.176;2022-12-24T05:56:19;12.30;81.50
16402;DHT22;8310;44.626;11.176;2022-12-24T05:58:47;11.30;80.90
16402;DHT22;8310;44.626;11.176;2022-12-24T06:01:15;11.30;80.90
16402;DHT22;8310;44.626;11.176;2022-12-24T06:03:43;11.30;80.80
16402;DHT22;8310;44.626;11.176;2022-12-24T06:06:12;11.30;80.90
16402;DHT22;8310;44.626;11.176;2022-12-24T06:08:42;11.30;80.90
16402;DHT22;8310;44.626;11.176;2022-12-24T06:11:15;11.30;80.90
16402;DHT22;8310;44.626;11.176;2022-12-24T06:13:42;11.40;81.00
16402;DHT22;8310;44.626;11.176;2022-12-24T06:16:12;11.30;81.00
16402;DHT22;8310;44.626;11.176;2022-12-24T06:18:40;11.40;81.00
16402;DHT22;8310;44.626;11.176;2022-12-24T06:21:08;11.40;81.00
16402;DHT22;8310;44.626;11.176;2022-12-24T06:23:38;11.40;81.70
16402;DHT22;8310;44.626;11.176;2022-12-24T06:26:10;11.30;80.90
16402;DHT22;8310;44.626;11.176;2022-12-24T06:28:38;11.30;80.80
16402;DHT22;8310;44.626;11.176;2022-12-24T06:31:11;11.30;80.90
16402;DHT22;8310;44.626;11.176;2022-12-24T06:33:40;11.30;80.90
16402;DHT22;8310;44.626;11.176;2022-12-24T06:36:12;11.30;80.90
16402;DHT22;8310;44.626;11.176;2022-12-24T06:38:40;11.30;80.90
16402;DHT22;8310;44.626;11.176;2022-12-24T06:41:09;11.30;80.90
16402;DHT22;8310;44.626;11.176;2022-12-24T06:43:37;11.30;80.90
16402;DHT22;8310;44.626;11.176;2022-12-24T06:46:05;11.30;80.80
16402;DHT22;8310;44.626;11.176;2022-12-24T06:48:32;11.20;80.60
16402;DHT22;8310;44.626;11.176;2022-12-24T06:51:01;11.20;80.60
16402;DHT22;8310;44.626;11.176;2022-12-24T06:53:29;11.20;80.70
16402;DHT22;8310;44.626;11.176;2022-12-24T06:56:00;11.20;80.70
16402;DHT22;8310;44.626;11.176;2022-12-24T06:58:30;11.20;80.80
16402;DHT22;8310;44.626;11.176;2022-12-24T07:01:00;11.20;80.90
16402;DHT22;8310;44.626;11.176;2022-12-24T07:03:28;11.20;81.00
16402;DHT22;8310;44.626;11.176;2022-12-24T07:05:55;11.20;81.00
16402;DHT22;8310;44.626;11.176;2022-12-24T07:08:25;11.20;80.90
16402;DHT22;8310;44.626;11.176;2022-12-24T07:10:58;11.20;80.90
16402;DHT22;8310;44.626;11.176;2022-12-24T07:13:26;11.20;80.70
16402;DHT22;8310;44.626;11.176;2022-12-24T07:15:58;11.20;80.60
16402;DHT22;8310;44.626;11.176;2022-12-24T07:18:26;11.10;80.50
16402;DHT22;8310;44.626;11.176;2022-12-24T07:20:53;11.00;80.40
16402;DHT22;8310;44.626;11.176;2022-12-24T07:23:21;11.00;80.60
16402;DHT22;8310;44.626;11.176;2022-12-24T07:25:49;11.00;80.70
16402;DHT22;8310;44.626;11.176;2022-12-24T07:28:17;11.00;80.60
16402;DHT22;8310;44.626;11.176;2022-12-24T07:30:47;10.90;80.60
16402;DHT22;8310;44.626;11.176;2022-12-24T07:33:16;10.90;80.50
16402;DHT22;8310;44.626;11.176;2022-12-24T07:35:44;10.90;80.60
16402;DHT22;8310;44.626;11.176;2022-12-24T07:38:12;10.90;80.70
16402;DHT22;8310;44.626;11.176;2022-12-24T07:40:40;10.90;80.70
16402;DHT22;8310;44.626;11.176;2022-12-24T07:43:08;10.90;80.80
16402;DHT22;8310;44.626;11.176;2022-12-24T07:45:35;10.90;80.80
16402;DHT22;8310;44.626;11.176;2022-12-24T07:48:04;10.80;80.80
16402;DHT22;8310;44.626;11.176;2022-12-24T07:50:33;10.80;80.80
16402;DHT22;8310;44.626;11.176;2022-12-24T07:53:01;10.80;80.70
16402;DHT22;8310;44.626;11.176;2022-12-24T07:55:29;10.80;80.70
16402;DHT22;8310;44.626;11.176;2022-12-24T07:57:56;10.70;80.60
16402;DHT22;8310;44.626;11.176;2022-12-24T08:00:24;10.70;80.70
16402;DHT22;8310;44.626;11.176;2022-12-24T08:02:52;10.70;80.70
16402;DHT22;8310;44.626;11.176;2022-12-24T08:05:19;10.70;80.80
16402;DHT22;8310;44.626;11.176;2022-12-24T08:07:48;10.70;80.90
16402;DHT22;8310;44.626;11.176;2022-12-24T08:10:16;10.70;81.10
16402;DHT22;8310;44.626;11.176;2022-12-24T08:12:43;10.80;81.20
16402;DHT22;8310;44.626;11.176;2022-12-24T08:15:13;10.80;81.20
16402;DHT22;8310;44.626;11.176;2022-12-24T08:17:41;10.90;81.20
16402;DHT22;8310;44.626;11.176;2022-12-24T08:20:09;11.00;81.40
16402;DHT22;8310;44.626;11.176;2022-12-24T08:22:37;11.00;81.40
16402;DHT22;8310;44.626;11.176;2022-12-24T08:25:08;11.00;81.40
16402;DHT22;8310;44.626;11.176;2022-12-24T08:27:35;11.10;81.40
16402;DHT22;8310;44.626;11.176;2022-12-24T08:30:03;11.10;81.40
16402;DHT22;8310;44.626;11.176;2022-12-24T08:32:33;11.20;81.40
16402;DHT22;8310;44.626;11.176;2022-12-24T08:35:00;11.20;81.40
16402;DHT22;8310;44.626;11.176;2022-12-24T08:37:28;11.30;81.50
16402;DHT22;8310;44.626;11.176;2022-12-24T08:39:55;11.30;81.40
16402;DHT22;8310;44.626;11.176;2022-12-24T08:42:26;11.30;81.30
16402;DHT22;8310;44.626;11.176;2022-12-24T08:44:54;11.30;81.30
16402;DHT22;8310;44.626;11.176;2022-12-24T08:47:22;11.30;81.30
16402;DHT22;8310;44.626;11.176;2022-12-24T08:49:49;11.30;81.40
16402;DHT22;8310;44.626;11.176;2022-12-24T08:52:18;11.30;81.40
16402;DHT22;8310;44.626;11.176;2022-12-24T08:54:45;11.40;81.40
16402;DHT22;8310;44.626;11.176;2022-12-24T08:57:13;11.40;81.40
16402;DHT22;8310;44.626;11.176;2022-12-24T08:59:42;11.40;81.40
16402;DHT22;8310;44.626;11.176;2022-12-24T09:02:10;11.40;81.30
16402;DHT22;8310;44.626;11.176;2022-12-24T09:04:38;11.40;81.30
16402;DHT22;8310;44.626;11.176;2022-12-24T09:07:06;11.40;81.30
16402;DHT22;8310;44.626;11.176;2022-12-24T09:09:35;11.40;81.40
16402;DHT22;8310;44.626;11.176;2022-12-24T09:12:04;11.50;81.40
16402;DHT22;8310;44.626;11.176;2022-12-24T09:14:32;11.50;81.50
16402;DHT22;8310;44.626;11.176;2022-12-24T09:17:02;11.50;81.60
16402;DHT22;8310;44.626;11.176;2022-12-24T09:19:29;11.50;81.60
16402;DHT22;8310;44.626;11.176;2022-12-24T09:21:56;11.60;81.60
16402;DHT22;8310;44.626;11.176;2022-12-24T09:24:24;11.60;81.70
16402;DHT22;8310;44.626;11.176;2022-12-24T09:26:52;11.60;81.60
16402;DHT22;8310;44.626;11.176;2022-12-24T09:29:20;11.70;81.70
16402;DHT22;8310;44.626;11.176;2022-12-24T09:31:47;11.70;81.80
16402;DHT22;8310;44.626;11.176;2022-12-24T09:34:17;11.80;81.90
16402;DHT22;8310;44.626;11.176;2022-12-24T09:36:51;11.80;82.00
16402;DHT22;8310;44.626;11.176;2022-12-24T09:39:19;11.90;82.00
16402;DHT22;8310;44.626;11.176;2022-12-24T09:41:53;11.90;82.00
16402;DHT22;8310;44.626;11.176;2022-12-24T09:44:33;12.00;82.00
16402;DHT22;8310;44.626;11.176;2022-12-24T09:47:09;12.00;82.00
16402;DHT22;8310;44.626;11.176;2022-12-24T09:49:44;12.10;82.20
16402;DHT22;8310;44.626;11.176;2022-12-24T09:52:30;12.10;82.10
16402;DHT22;8310;44.626;11.176;2022-12-24T09:55:04;12.10;82.00
16402;DHT22;8310;44.626;11.176;2022-12-24T09:57:35;12.20;82.10
16402;DHT22;8310;44.626;11.176;2022-12-24T10:00:10;12.20;82.20
16402;DHT22;8310;44.626;11.176;2022-12-24T10:02:42;12.30;82.10
16402;DHT22;8310;44.626;11.176;2022-12-24T10:05:14;12.30;82.10
16402;DHT22;8310;44.626;11.176;2022-12-24T10:07:47;12.30;82.10
16402;DHT22;8310;44.626;11.176;2022-12-24T10:10:23;12.30;82.00
16402;DHT22;8310;44.626;11.176;2022-12-24T10:12:58;12.40;82.20
16402;DHT22;8310;44.626;11.176;2022-12-24T10:15:33;12.40;82.10
16402;DHT22;8310;44.626;11.176;2022-12-24T10:18:17;12.40;82.10
16402;DHT22;8310;44.626;11.176;2022-12-24T10:21:04;12.40;82.20
16402;DHT22;8310;44.626;11.176;2022-12-24T10:23:38;12.50;81.90
16402;DHT22;8310;44.626;11.176;2022-12-24T10:26:11;12.40;81.60
16402;DHT22;8310;44.626;11.176;2022-12-24T10:28:46;12.40;81.50
16402;DHT22;8310;44.626;11.176;2022-12-24T10:31:15;12.30;81.30
16402;DHT22;8310;44.626;11.176;2022-12-24T10:33:47;12.30;81.30
16402;DHT22;8310;44.626;11.176;2022-12-24T10:36:20;12.30;81.50
16402;DHT22;8310;44.626;11.176;2022-12-24T10:38:49;12.30;81.50
16402;DHT22;8310;44.626;11.176;2022-12-24T10:41:17;12.30;81.50
16402;DHT22;8310;44.626;11.176;2022-12-24T10:43:46;12.20;81.50
16402;DHT22;8310;44.626;11.176;2022-12-24T10:46:18;12.20;81.40
16402;DHT22;8310;44.626;11.176;2022-12-24T10:48:51;12.20;81.50
16402;DHT22;8310;44.626;11.176;2022-12-24T10:51:26;12.20;81.50
16402;DHT22;8310;44.626;11.176;2022-12-24T10:54:00;12.20;81.50
16402;DHT22;8310;44.626;11.176;2022-12-24T10:56:39;12.20;81.60
16402;DHT22;8310;44.626;11.176;2022-12-24T10:59:22;12.20;81.50
16402;DHT22;8310;44.626;11.176;2022-12-24T11:01:50;12.20;81.40
16402;DHT22;8310;44.626;11.176;2022-12-24T11:04:20;12.20;81.40
16402;DHT22;8310;44.626;11.176;2022-12-24T11:06:54;12.20;81.40
16402;DHT22;8310;44.626;11.176;2022-12-24T11:09:24;12.10;81.20
16402;DHT22;8310;44.626;11.176;2022-12-24T11:11:53;12.10;81.20
16402;DHT22;8310;44.626;11.176;2022-12-24T11:14:20;12.10;81.30
16402;DHT22;8310;44.626;11.176;2022-12-24T11:16:51;12.10;81.40
16402;DHT22;8310;44.626;11.176;2022-12-24T11:19:28;12.10;81.50
16402;DHT22;8310;44.626;11.176;2022-12-24T11:22:03;12.10;81.40
16402;DHT22;8310;44.626;11.176;2022-12-24T11:24:33;12.10;81.60
16402;DHT22;8310;44.626;11.176;2022-12-24T11:27:28;12.20;81.60
16402;DHT22;8310;44.626;11.176;2022-12-24T11:30:26;12.20;81.70
16402;DHT22;8310;44.626;11.176;2022-12-24T11:33:24;12.20;81.70
16402;DHT22;8310;44.626;11.176;2022-12-24T11:35:55;12.30;81.90
16402;DHT22;8310;44.626;11.176;2022-12-24T11:38:26;12.30;82.00
16402;DHT22;8310;44.626;11.176;2022-12-24T11:41:00;12.40;82.10
16402;DHT22;8310;44.626;11.176;2022-12-24T11:43:36;12.40;82.10
16402;DHT22;8310;44.626;11.176;2022-12-24T11:46:20;12.50;82.20
16402;DHT22;8310;44.626;11.176;2022-12-24T11:48:48;12.50;82.10
16402;DHT22;8310;44.626;11.176;2022-12-24T11:51:31;12.50;81.90
16402;DHT22;8310;44.626;11.176;2022-12-24T11:54:07;12.50;81.60
16402;DHT22;8310;44.626;11.176;2022-12-24T11:56:42;12.50;81.60
16402;DHT22;8310;44.626;11.176;2022-12-24T11:59:17;12.50;81.70
16402;DHT22;8310;44.626;11.176;2022-12-24T12:01:51;12.50;81.80
16402;DHT22;8310;44.626;11.176;2022-12-24T12:04:24;12.50;81.90
16402;DHT22;8310;44.626;11.176;2022-12-24T12:06:57;12.50;82.00
16402;DHT22;8310;44.626;11.176;2022-12-24T12:09:29;12.60;82.00
16402;DHT22;8310;44.626;11.176;2022-12-24T12:12:00;12.60;81.80
16402;DHT22;8310;44.626;11.176;2022-12-24T12:14:33;12.60;81.90
16402;DHT22;8310;44.626;11.176;2022-12-24T12:17:05;12.60;81.90
16402;DHT22;8310;44.626;11.176;2022-12-24T12:19:43;12.60;81.80
16402;DHT22;8310;44.626;11.176;2022-12-24T12:22:21;12.60;81.70
16402;DHT22;8310;44.626;11.176;2022-12-24T12:24:52;12.60;81.50
16402;DHT22;8310;44.626;11.176;2022-12-24T12:27:27;12.50;81.30
16402;DHT22;8310;44.626;11.176;2022-12-24T12:30:22;12.50;81.50
16402;DHT22;8310;44.626;11.176;2022-12-24T12:32:53;12.50;81.50
16402;DHT22;8310;44.626;11.176;2022-12-24T12:35:25;12.40;81.50
16402;DHT22;8310;44.626;11.176;2022-12-24T12:37:56;12.40;81.60
16402;DHT22;8310;44.626;11.176;2022-12-24T12:40:35;12.50;81.70
16402;DHT22;8310;44.626;11.176;2022-12-24T12:43:13;12.50;81.90
16402;DHT22;8310;44.626;11.176;2022-12-24T12:45:47;12.50;81.90
16402;DHT22;8310;44.626;11.176;2022-12-24T12:51:14;12.60;82.00
16402;DHT22;8310;44.626;11.176;2022-12-24T12:54:01;12.60;81.90
16402;DHT22;8310;44.626;11.176;2022-12-24T12:56:35;12.60;81.80
16402;DHT22;8310;44.626;11.176;2022-12-24T12:59:10;12.70;81.90
16402;DHT22;8310;44.626;11.176;2022-12-24T13:01:44;12.70;82.00
16402;DHT22;8310;44.626;11.176;2022-12-24T13:04:33;12.70;82.00
16402;DHT22;8310;44.626;11.176;2022-12-24T13:07:33;12.70;82.00
16402;DHT22;8310;44.626;11.176;2022-12-24T13:10:41;12.70;82.10
16402;DHT22;8310;44.626;11.176;2022-12-24T13:13:35;12.70;81.80
16402;DHT22;8310;44.626;11.176;2022-12-24T13:19:20;12.60;81.50
16402;DHT22;8310;44.626;11.176;2022-12-24T13:21:55;12.60;81.60
16402;DHT22;8310;44.626;11.176;2022-12-24T13:24:24;12.60;81.60
16402;DHT22;8310;44.626;11.176;2022-12-24T13:27:03;12.60;81.70
16402;DHT22;8310;44.626;11.176;2022-12-24T13:29:42;12.60;81.70
16402;DHT22;8310;44.626;11.176;2022-12-24T13:32:36;12.60;81.90
16402;DHT22;8310;44.626;11.176;2022-12-24T13:38:43;12.60;81.80
16402;DHT22;8310;44.626;11.176;2022-12-24T13:41:42;12.60;81.80
16402;DHT22;8310;44.626;11.176;2022-12-24T13:44:18;12.70;82.00
16402;DHT22;8310;44.626;11.176;2022-12-24T13:46:59;12.70;81.90
16402;DHT22;8310;44.626;11.176;2022-12-24T13:49:33;12.70;81.90
16402;DHT22;8310;44.626;11.176;2022-12-24T13:52:15;12.70;81.90
16402;DHT22;8310;44.626;11.176;2022-12-24T13:54:47;12.70;81.90
16402;DHT22;8310;44.626;11.176;2022-12-24T13:57:28;12.70;81.90
16402;DHT22;8310;44.626;11.176;2022-12-24T13:59:59;12.70;81.90
16402;DHT22;8310;44.626;11.176;2022-12-24T14:02:33;12.70;81.90
16402;DHT22;8310;44.626;11.176;2022-12-24T14:05:05;12.70;81.90
16402;DHT22;8310;44.626;11.176;2022-12-24T14:07:35;12.70;81.80
16402;DHT22;8310;44.626;11.176;2022-12-24T14:10:04;12.70;81.60
16402;DHT22;8310;44.626;11.176;2022-12-24T14:12:46;12.70;81.60
16402;DHT22;8310;44.626;11.176;2022-12-24T14:18:34;12.60;81.60
16402;DHT22;8310;44.626;11.176;2022-12-24T14:21:05;12.60;81.60
16402;DHT22;8310;44.626;11.176;2022-12-24T14:23:41;12.60;81.70
16402;DHT22;8310;44.626;11.176;2022-12-24T14:26:14;12.60;81.70
16402;DHT22;8310;44.626;11.176;2022-12-24T14:28:46;12.60;81.70
16402;DHT22;8310;44.626;11.176;2022-12-24T14:31:18;12.60;81.40
16402;DHT22;8310;44.626;11.176;2022-12-24T14:33:47;12.50;81.10
16402;DHT22;8310;44.626;11.176;2022-12-24T14:36:19;12.40;80.90
16402;DHT22;8310;44.626;11.176;2022-12-24T14:38:48;12.40;81.00
16402;DHT22;8310;44.626;11.176;2022-12-24T14:41:29;12.30;80.90
16402;DHT22;8310;44.626;11.176;2022-12-24T14:44:07;12.30;81.10
16402;DHT22;8310;44.626;11.176;2022-12-24T14:46:43;12.20;81.10
16402;DHT22;8310;44.626;11.176;2022-12-24T14:49:24;12.20;81.10
16402;DHT22;8310;44.626;11.176;2022-12-24T14:52:01;12.20;81.10
16402;DHT22;8310;44.626;11.176;2022-12-24T14:54:34;12.20;81.10
16402;DHT22;8310;44.626;11.176;2022-12-24T14:57:18;12.10;81.00
16402;DHT22;8310;44.626;11.176;2022-12-24T14:59:51;12.10;80.90
16402;DHT22;8310;44.626;11.176;2022-12-24T15:02:44;12.10;81.00
16402;DHT22;8310;44.626;11.176;2022-12-24T15:05:19;12.00;81.10
16402;DHT22;8310;44.626;11.176;2022-12-24T15:07:53;12.00;81.10
16402;DHT22;8310;44.626;11.176;2022-12-24T15:10:29;12.00;81.10
16402;DHT22;8310;44.626;11.176;2022-12-24T15:13:02;12.00;81.10
16402;DHT22;8310;44.626;11.176;2022-12-24T15:15:30;12.00;81.20
16402;DHT22;8310;44.626;11.176;2022-12-24T15:17:58;12.00;81.10
16402;DHT22;8310;44.626;11.176;2022-12-24T15:20:29;12.00;81.10
16402;DHT22;8310;44.626;11.176;2022-12-24T15:22:58;12.00;81.20
16402;DHT22;8310;44.626;11.176;2022-12-24T15:25:27;12.00;81.40
16402;DHT22;8310;44.626;11.176;2022-12-24T15:27:55;12.10;81.50
16402;DHT22;8310;44.626;11.176;2022-12-24T15:30:24;12.10;81.50
16402;DHT22;8310;44.626;11.176;2022-12-24T15:32:53;12.10;81.50
16402;DHT22;8310;44.626;11.176;2022-12-24T15:35:50;12.10;81.50
16402;DHT22;8310;44.626;11.176;2022-12-24T15:38:26;12.20;81.60
16402;DHT22;8310;44.626;11.176;2022-12-24T15:40:56;12.20;82.10
16402;DHT22;8310;44.626;11.176;2022-12-24T15:43:24;12.20;81.70
16402;DHT22;8310;44.626;11.176;2022-12-24T15:45:52;12.20;81.70
16402;DHT22;8310;44.626;11.176;2022-12-24T15:48:22;12.30;81.70
16402;DHT22;8310;44.626;11.176;2022-12-24T15:50:54;12.30;81.70
16402;DHT22;8310;44.626;11.176;2022-12-24T15:53:25;12.30;81.80
16402;DHT22;8310;44.626;11.176;2022-12-24T15:56:06;12.30;81.70
16402;DHT22;8310;44.626;11.176;2022-12-24T15:58:38;12.30;81.70
16402;DHT22;8310;44.626;11.176;2022-12-24T16:01:26;12.30;81.60
16402;DHT22;8310;44.626;11.176;2022-12-24T16:03:59;12.30;81.60
16402;DHT22;8310;44.626;11.176;2022-12-24T16:06:51;12.30;81.60
16402;DHT22;8310;44.626;11.176;2022-12-24T16:09:39;12.30;81.70
16402;DHT22;8310;44.626;11.176;2022-12-24T16:12:16;12.30;81.60
16402;DHT22;8310;44.626;11.176;2022-12-24T16:14:50;12.30;81.50
16402;DHT22;8310;44.626;11.176;2022-12-24T16:17:21;12.30;81.40